Time;durP1;ratioP1;P1;durP2;ratioP2;P2;SDS_P1;SDS_P2;PMS_P1;PMS_P2;Temp;Humidity;BMP_temperature;BMP_pressure;BME280_temperature;BME280_humidity;BME280_pressure;Samples;Min_cycle;Max_cycle;Signal;HPM_P1;HPM_P2
2024/04/13 00:00:24;;;;;;;6.97;3.22;;;12.00;99.90;;;;;;5545442;25;20042;-80
2024/04/13 00:02:50;;;;;;;7.75;3.17;;;12.00;99.90;;;;;;5514202;25;20020;-80
2024/04/13 00:05:16;;;;;;;9.13;3.38;;;12.00;99.90;;;;;;5512684;25;20006;-80
2024/04/13 00:07:41;;;;;;;8.32;3.25;;;12.00;99.90;;;;;;5547769;25;20005;-80
2024/04/13 00:10:07;;;;;;;6.18;3.28;;;11.90;99.90;;;;;;5524918;25;20371;-80
2024/04/13 00:12:33;;;;;;;6.40;3.30;;;11.90;99.90;;;;;;5552783;25;20005;-81
2024/04/13 00:14:59;;;;;;;6.50;2.67;;;11.90;99.90;;;;;;5533719;25;20006;-81
2024/04/13 00:17:24;;;;;;;8.07;2.97;;;11.90;99.90;;;;;;5545699;25;20000;-80
2024/04/13 00:19:50;;;;;;;8.35;3.90;;;12.00;99.90;;;;;;5547329;25;20009;-80
2024/04/13 00:22:19;;;;;;;6.43;2.63;;;12.00;99.90;;;;;;5564467;25;20004;-80
2024/04/13 00:24:45;;;;;;;8.05;2.80;;;12.20;99.90;;;;;;5515726;25;20470;-81
2024/04/13 00:27:12;;;;;;;7.13;3.22;;;11.90;99.90;;;;;;5547205;25;20001;-80
2024/04/13 00:29:39;;;;;;;8.77;3.55;;;11.90;99.90;;;;;;5563558;25;20005;-80
2024/04/13 00:32:05;;;;;;;6.53;3.20;;;11.90;99.90;;;;;;5531658;25;20020;-80
2024/04/13 00:34:33;;;;;;;12.50;2.65;;;12.00;99.90;;;;;;5548723;25;20005;-81
2024/04/13 00:37:00;;;;;;;8.38;2.95;;;12.00;99.90;;;;;;5547314;25;20005;-81
2024/04/13 00:39:25;;;;;;;6.55;2.40;;;12.00;99.90;;;;;;5549279;25;20021;-80
2024/04/13 00:41:54;;;;;;;7.03;2.65;;;12.00;99.90;;;;;;5568098;25;20004;-80
2024/04/13 00:44:20;;;;;;;6.20;2.50;;;12.00;99.90;;;;;;5535892;25;20363;-80
2024/04/13 00:46:47;;;;;;;6.78;2.50;;;12.00;99.90;;;;;;5547322;25;20013;-80
2024/04/13 00:49:14;;;;;;;13.93;2.95;;;12.00;99.90;;;;;;5534965;25;20341;-80
2024/04/13 00:51:44;;;;;;;4.97;2.53;;;12.00;99.90;;;;;;5531267;25;20009;-80
2024/04/13 00:54:16;;;;;;;9.95;2.60;;;12.00;99.90;;;;;;5530571;25;20005;-80
2024/04/13 00:56:47;;;;;;;8.27;3.78;;;11.90;99.90;;;;;;5529875;25;20012;-80
2024/04/13 00:59:13;;;;;;;5.18;2.55;;;11.90;99.90;;;;;;5529493;26;20005;-80
2024/04/13 01:01:39;;;;;;;8.05;2.53;;;11.90;99.90;;;;;;5530426;26;20005;-80
2024/04/13 01:04:08;;;;;;;6.45;2.90;;;11.90;99.90;;;;;;5533895;25;20012;-80
2024/04/13 01:06:35;;;;;;;7.53;3.08;;;11.90;99.90;;;;;;5525905;25;20379;-80
2024/04/13 01:09:01;;;;;;;8.00;3.08;;;11.90;99.90;;;;;;5555333;25;20005;-80
2024/04/13 01:11:29;;;;;;;6.25;2.80;;;11.80;99.90;;;;;;5534669;25;20008;-80
2024/04/13 01:13:56;;;;;;;5.57;2.53;;;11.80;99.90;;;;;;5536018;25;20045;-80
2024/04/13 01:16:29;;;;;;;6.68;2.88;;;11.80;99.90;;;;;;5553435;25;20009;-81
2024/04/13 01:18:55;;;;;;;7.05;2.80;;;11.80;99.90;;;;;;5557259;25;20455;-80
2024/04/13 01:21:21;;;;;;;5.82;2.45;;;11.80;99.90;;;;;;5529370;25;20005;-80
2024/04/13 01:24:07;;;;;;;10.45;2.78;;;11.70;99.90;;;;;;5567369;25;20544;-80
2024/04/13 01:26:41;;;;;;;9.27;2.67;;;11.80;99.90;;;;;;5553620;25;20006;-80
2024/04/13 01:29:10;;;;;;;6.55;2.65;;;11.70;99.90;;;;;;5537437;25;20069;-80
2024/04/13 01:31:37;;;;;;;11.13;3.60;;;11.70;99.90;;;;;;5550464;25;20044;-80
2024/04/13 01:34:04;;;;;;;7.93;2.75;;;11.70;99.90;;;;;;5554607;25;20001;-80
2024/04/13 01:36:48;;;;;;;9.15;2.67;;;11.70;99.90;;;;;;5514747;25;20689;-80
2024/04/13 01:39:13;;;;;;;8.15;2.72;;;11.60;99.90;;;;;;5566798;25;20005;-80
2024/04/13 01:41:53;;;;;;;11.10;2.95;;;11.60;99.90;;;;;;5552686;25;20005;-81
2024/04/13 01:44:19;;;;;;;14.43;3.67;;;11.60;99.90;;;;;;5563086;25;20083;-80
2024/04/13 01:46:44;;;;;;;6.38;2.80;;;11.60;99.90;;;;;;5550448;25;20012;-80
2024/04/13 01:49:10;;;;;;;7.50;2.95;;;11.60;99.90;;;;;;5566826;25;20032;-80
2024/04/13 01:51:36;;;;;;;9.40;2.50;;;11.60;99.90;;;;;;5559389;25;20016;-80
2024/04/13 01:54:02;;;;;;;6.28;2.70;;;11.60;99.90;;;;;;5557420;25;20005;-81
2024/04/13 01:56:27;;;;;;;6.95;3.00;;;11.60;99.90;;;;;;5564535;25;20005;-80
2024/04/13 01:58:55;;;;;;;10.98;2.97;;;11.60;99.90;;;;;;5566537;25;20001;-80
2024/04/13 02:01:21;;;;;;;10.30;2.67;;;11.60;99.90;;;;;;5544739;25;20504;-80
2024/04/13 02:03:47;;;;;;;8.43;3.00;;;11.50;99.90;;;;;;5560510;25;20004;-81
2024/04/13 02:06:13;;;;;;;10.50;3.45;;;11.50;99.90;;;;;;5552800;25;20016;-80
2024/04/13 02:08:39;;;;;;;10.43;2.90;;;11.60;99.90;;;;;;5563835;25;20001;-80
2024/04/13 02:11:06;;;;;;;7.65;2.67;;;11.50;99.90;;;;;;5538581;25;20002;-80
2024/04/13 02:13:33;;;;;;;14.80;3.38;;;11.40;99.90;;;;;;5563833;25;20447;-80
2024/04/13 02:15:59;;;;;;;6.95;3.03;;;11.50;99.90;;;;;;5565321;25;20080;-80
2024/04/13 02:18:25;;;;;;;7.72;2.90;;;11.40;99.90;;;;;;5547171;25;20019;-80
2024/04/13 02:20:51;;;;;;;7.65;2.67;;;11.40;99.90;;;;;;5533761;25;20004;-81
2024/04/13 02:23:17;;;;;;;7.95;3.25;;;11.50;99.90;;;;;;5558979;25;20016;-81
2024/04/13 02:25:46;;;;;;;9.43;3.75;;;11.40;99.90;;;;;;5542883;25;20005;-80
2024/04/13 02:28:12;;;;;;;7.57;2.80;;;11.40;99.90;;;;;;5544393;25;20005;-81
2024/04/13 02:30:38;;;;;;;11.38;3.38;;;11.40;99.90;;;;;;5534762;25;20020;-81
2024/04/13 02:33:04;;;;;;;12.10;3.35;;;11.40;99.90;;;;;;5538192;25;20005;-80
2024/04/13 02:35:31;;;;;;;9.15;3.28;;;11.40;99.90;;;;;;5533392;25;20479;-80
2024/04/13 02:37:57;;;;;;;9.35;2.65;;;11.40;99.90;;;;;;5554016;25;20017;-80
2024/04/13 02:40:23;;;;;;;7.97;3.15;;;11.40;99.90;;;;;;5551200;25;20451;-80
2024/04/13 02:42:50;;;;;;;8.20;2.90;;;11.30;99.90;;;;;;5556195;25;20008;-80
2024/04/13 02:45:17;;;;;;;8.60;2.85;;;11.40;99.90;;;;;;5549714;25;20012;-80
2024/04/13 02:47:43;;;;;;;7.47;2.70;;;11.30;99.90;;;;;;5551559;25;20065;-80
2024/04/13 02:50:08;;;;;;;8.75;3.08;;;11.30;99.90;;;;;;5561445;25;20041;-81
2024/04/13 02:52:36;;;;;;;8.02;3.03;;;11.30;99.90;;;;;;5528936;26;20376;-80
2024/04/13 02:55:04;;;;;;;11.50;3.10;;;11.20;99.90;;;;;;5513542;25;20020;-80
2024/04/13 02:57:30;;;;;;;10.02;3.03;;;11.20;99.90;;;;;;5530767;25;20020;-80
2024/04/13 02:59:57;;;;;;;9.50;2.95;;;11.20;99.90;;;;;;5565799;25;20012;-81
2024/04/13 03:02:24;;;;;;;8.15;3.00;;;11.20;99.90;;;;;;5535763;25;20012;-81
2024/04/13 03:04:53;;;;;;;12.70;3.33;;;11.20;99.90;;;;;;5545435;25;20001;-80
2024/04/13 03:07:19;;;;;;;10.18;3.55;;;11.20;99.90;;;;;;5548766;25;20009;-81
2024/04/13 03:09:47;;;;;;;8.52;3.92;;;11.20;99.90;;;;;;5565568;25;20464;-80
2024/04/13 03:12:13;;;;;;;9.90;3.03;;;11.20;99.90;;;;;;5558805;25;20000;-80
2024/04/13 03:14:59;;;;;;;8.32;2.60;;;11.10;99.90;;;;;;5537536;25;20008;-80
2024/04/13 03:17:24;;;;;;;6.13;2.58;;;11.10;99.90;;;;;;5553506;25;19997;-81
2024/04/13 03:19:53;;;;;;;12.90;3.58;;;11.00;99.90;;;;;;5565954;25;20016;-80
2024/04/13 03:22:27;;;;;;;13.70;4.15;;;11.00;99.90;;;;;;5528849;25;20016;-80
2024/04/13 03:24:53;;;;;;;8.65;3.00;;;11.00;99.90;;;;;;5549161;25;20452;-81
2024/04/13 03:27:39;;;;;;;13.10;3.63;;;11.00;99.90;;;;;;5534779;25;20011;-80
2024/04/13 03:30:07;;;;;;;13.20;4.03;;;11.00;99.90;;;;;;5537486;25;20380;-80
2024/04/13 03:32:41;;;;;;;12.20;3.65;;;10.90;99.90;;;;;;5537413;25;20019;-80
2024/04/13 03:35:09;;;;;;;10.85;3.33;;;10.90;99.90;;;;;;5535350;25;20053;-81
2024/04/13 03:37:36;;;;;;;11.80;3.58;;;10.90;99.90;;;;;;5545259;25;20016;-80
2024/04/13 03:40:02;;;;;;;12.35;4.07;;;10.90;99.90;;;;;;5527965;25;20045;-81
2024/04/13 03:42:30;;;;;;;15.10;3.63;;;10.90;99.90;;;;;;5547578;25;20008;-80
2024/04/13 03:44:55;;;;;;;12.40;3.30;;;10.90;99.90;;;;;;5548990;25;20005;-80
2024/04/13 03:47:21;;;;;;;13.05;4.47;;;10.90;99.90;;;;;;5540191;25;20005;-80
2024/04/13 03:49:59;;;;;;;10.88;3.60;;;10.90;99.90;;;;;;5556774;25;20004;-81
2024/04/13 03:52:25;;;;;;;12.32;3.65;;;10.90;99.90;;;;;;5547566;25;20001;-80
2024/04/13 03:54:51;;;;;;;14.52;3.28;;;10.90;99.90;;;;;;5520276;26;20473;-80
2024/04/13 03:57:17;;;;;;;11.00;3.10;;;10.80;99.90;;;;;;5560089;25;20016;-80
2024/04/13 03:59:42;;;;;;;6.63;2.97;;;10.80;99.90;;;;;;5540862;25;20001;-81
2024/04/13 04:02:09;;;;;;;14.80;4.93;;;10.80;99.90;;;;;;5546285;25;20794;-80
2024/04/13 04:04:35;;;;;;;15.05;4.00;;;10.80;99.90;;;;;;5528978;25;20012;-81
2024/04/13 04:07:01;;;;;;;11.00;3.47;;;10.80;99.90;;;;;;5554699;25;20012;-81
2024/04/13 04:09:47;;;;;;;;;;;10.80;99.90;;;;;;5564553;25;20004;-80
2024/04/13 04:12:12;;;;;;;8.45;3.13;;;10.70;99.90;;;;;;5527210;25;19922;-81
2024/04/13 04:14:38;;;;;;;17.80;3.72;;;10.70;99.90;;;;;;5558222;25;20099;-80
2024/04/13 04:17:04;;;;;;;14.00;3.53;;;10.70;99.90;;;;;;5541018;25;20005;-81
2024/04/13 04:19:29;;;;;;;11.88;3.28;;;10.70;99.90;;;;;;5561417;25;20723;-80
2024/04/13 04:21:55;;;;;;;13.95;3.63;;;10.70;99.90;;;;;;5536119;25;20002;-80
2024/04/13 04:24:40;;;;;;;12.05;3.35;;;10.70;99.90;;;;;;5481308;26;19997;-80
2024/04/13 04:27:06;;;;;;;9.68;3.95;;;10.70;99.90;;;;;;5556595;25;20011;-81
2024/04/13 04:29:33;;;;;;;11.50;3.38;;;11.00;99.90;;;;;;5528455;25;20005;-80
2024/04/13 04:31:58;;;;;;;9.90;3.63;;;10.60;99.90;;;;;;5539837;25;20068;-80
2024/04/13 04:34:24;;;;;;;11.90;3.80;;;10.70;99.90;;;;;;5553669;25;20016;-80
2024/04/13 04:36:51;;;;;;;9.35;3.28;;;10.60;99.90;;;;;;5541917;25;20001;-80
2024/04/13 04:39:17;;;;;;;12.57;4.07;;;10.60;99.90;;;;;;5526948;26;20012;-80
2024/04/13 04:41:44;;;;;;;11.13;3.05;;;10.60;99.90;;;;;;5550197;25;20264;-80
2024/04/13 04:44:10;;;;;;;16.48;4.00;;;10.50;99.90;;;;;;5564772;25;20005;-81
2024/04/13 04:46:35;;;;;;;13.50;3.30;;;10.50;99.90;;;;;;5512074;25;20005;-80
2024/04/13 04:49:04;;;;;;;9.15;3.00;;;10.50;99.90;;;;;;5555288;25;20004;-80
2024/04/13 04:51:29;;;;;;;11.98;4.07;;;10.50;99.90;;;;;;5560408;25;20001;-80
2024/04/13 04:53:55;;;;;;;7.72;3.20;;;10.40;99.90;;;;;;5542596;25;20044;-80
2024/04/13 04:56:21;;;;;;;10.48;3.15;;;10.40;99.90;;;;;;5547050;25;20053;-80
2024/04/13 04:58:47;;;;;;;7.95;3.10;;;10.40;99.90;;;;;;5536678;25;20004;-80
2024/04/13 05:01:12;;;;;;;10.57;3.50;;;10.40;99.90;;;;;;5559245;25;20012;-80
2024/04/13 05:03:39;;;;;;;15.95;4.05;;;10.40;99.90;;;;;;5544000;25;20001;-80
2024/04/13 05:06:05;;;;;;;14.20;3.90;;;10.30;99.90;;;;;;5535464;25;20031;-80
2024/04/13 05:08:31;;;;;;;10.32;3.08;;;10.30;99.90;;;;;;5562788;25;20076;-80
2024/04/13 05:10:57;;;;;;;10.77;4.07;;;10.30;99.90;;;;;;5563443;25;20005;-80
2024/04/13 05:13:23;;;;;;;11.43;3.67;;;10.30;99.90;;;;;;5553140;25;20114;-80
2024/04/13 05:15:49;;;;;;;11.40;3.42;;;10.30;99.90;;;;;;5565073;25;20044;-80
2024/04/13 05:18:15;;;;;;;12.48;3.78;;;10.30;99.90;;;;;;5530451;25;20463;-80
2024/04/13 05:20:41;;;;;;;13.20;4.20;;;10.30;99.90;;;;;;5530468;26;20014;-80
2024/04/13 05:23:07;;;;;;;12.60;3.72;;;10.30;99.90;;;;;;5534513;25;20004;-80
2024/04/13 05:25:33;;;;;;;18.52;4.22;;;10.30;99.90;;;;;;5568238;25;20004;-80
2024/04/13 05:27:59;;;;;;;14.98;4.55;;;10.30;99.90;;;;;;5559421;25;20015;-80
2024/04/13 05:30:26;;;;;;;12.43;3.83;;;10.30;99.90;;;;;;5543622;25;20364;-80
2024/04/13 05:32:52;;;;;;;12.65;3.65;;;10.30;99.90;;;;;;5568712;25;20009;-80
2024/04/13 05:35:18;;;;;;;16.13;4.28;;;10.30;99.90;;;;;;5566330;25;20001;-80
2024/04/13 05:37:44;;;;;;;13.75;4.82;;;10.40;99.90;;;;;;5543499;25;20456;-80
2024/04/13 05:40:15;;;;;;;13.98;3.95;;;10.40;99.90;;;;;;5538047;25;20361;-80
2024/04/13 05:42:41;;;;;;;10.48;3.65;;;10.30;99.90;;;;;;5513584;26;20013;-80
2024/04/13 05:45:07;;;;;;;15.35;4.43;;;10.40;99.90;;;;;;5530386;25;20001;-80
2024/04/13 05:47:33;;;;;;;11.38;4.53;;;10.40;99.90;;;;;;5530144;25;20433;-81
2024/04/13 05:49:59;;;;;;;12.68;4.20;;;10.50;99.90;;;;;;5530029;25;20005;-80
2024/04/13 05:52:25;;;;;;;13.48;4.13;;;10.50;99.90;;;;;;5549228;25;20019;-80
2024/04/13 05:54:51;;;;;;;13.52;4.38;;;10.60;99.90;;;;;;5551246;25;20032;-80
2024/04/13 05:57:17;;;;;;;16.70;4.18;;;10.60;99.90;;;;;;5565286;25;20005;-80
2024/04/13 05:59:43;;;;;;;18.20;4.47;;;10.60;99.90;;;;;;5558908;25;20072;-81
2024/04/13 06:02:08;;;;;;;17.65;4.45;;;10.70;99.90;;;;;;5550346;25;20390;-80
2024/04/13 06:04:35;;;;;;;12.55;4.28;;;10.70;99.90;;;;;;5550013;25;20010;-80
2024/04/13 06:07:01;;;;;;;13.75;4.07;;;10.80;99.90;;;;;;5538376;25;20332;-80
2024/04/13 06:09:27;;;;;;;18.42;4.65;;;10.80;99.90;;;;;;5558485;25;20012;-80
2024/04/13 06:11:53;;;;;;;12.70;3.50;;;10.90;99.90;;;;;;5539259;25;20012;-80
2024/04/13 06:14:19;;;;;;;12.25;4.55;;;11.00;99.90;;;;;;5531867;25;20009;-80
2024/04/13 06:16:44;;;;;;;13.52;4.25;;;11.00;99.90;;;;;;5528258;25;20081;-80
2024/04/13 06:19:13;;;;;;;13.68;4.30;;;11.10;99.90;;;;;;5557185;25;20459;-80
2024/04/13 06:21:39;;;;;;;11.40;4.13;;;11.20;99.90;;;;;;5549253;25;20024;-79
2024/04/13 06:24:05;;;;;;;11.82;4.53;;;11.20;99.90;;;;;;5532756;25;20001;-80
2024/04/13 06:26:31;;;;;;;16.13;4.65;;;11.30;99.90;;;;;;5532240;25;20077;-80
2024/04/13 06:28:56;;;;;;;14.00;4.30;;;11.30;99.90;;;;;;5552350;25;20016;-80
2024/04/13 06:31:23;;;;;;;14.68;4.25;;;11.40;99.90;;;;;;5567285;25;20027;-80
2024/04/13 06:33:48;;;;;;;13.68;4.35;;;11.50;99.90;;;;;;5564694;25;20363;-80
2024/04/13 06:36:15;;;;;;;12.75;3.95;;;11.50;99.90;;;;;;5550948;25;20033;-80
2024/04/13 06:38:41;;;;;;;16.30;3.83;;;11.60;99.90;;;;;;5582922;25;20006;-80
2024/04/13 06:41:07;;;;;;;16.40;4.10;;;11.60;99.90;;;;;;5551163;25;20543;-80
2024/04/13 06:43:32;;;;;;;15.30;4.32;;;11.70;99.90;;;;;;5562849;25;20015;-80
2024/04/13 06:45:58;;;;;;;11.85;4.35;;;11.90;99.90;;;;;;5539764;25;20521;-80
2024/04/13 06:48:24;;;;;;;12.43;5.72;;;11.80;99.90;;;;;;5566227;25;20027;-80
2024/04/13 06:50:49;;;;;;;13.20;4.45;;;11.80;99.90;;;;;;5558239;25;20004;-80
2024/04/13 06:53:16;;;;;;;9.98;4.53;;;11.90;99.90;;;;;;5534825;25;20014;-80
2024/04/13 06:55:42;;;;;;;17.35;5.05;;;11.90;99.90;;;;;;5545536;25;20006;-80
2024/04/13 06:58:08;;;;;;;10.77;4.47;;;12.10;99.90;;;;;;5550291;25;20004;-80
2024/04/13 07:00:34;;;;;;;14.95;4.78;;;12.10;99.90;;;;;;5566037;25;20035;-80
2024/04/13 07:02:59;;;;;;;16.45;4.80;;;12.20;99.90;;;;;;5590083;25;20921;-80
2024/04/13 07:05:26;;;;;;;14.23;4.90;;;12.20;99.90;;;;;;5530739;25;20771;-80
2024/04/13 07:07:52;;;;;;;11.93;4.30;;;12.30;99.90;;;;;;5540448;25;20005;-79
2024/04/13 07:10:17;;;;;;;14.88;4.40;;;12.40;99.90;;;;;;5525009;25;20006;-80
2024/04/13 07:12:43;;;;;;;12.25;4.32;;;12.70;99.90;;;;;;5555586;25;20407;-80
2024/04/13 07:15:09;;;;;;;11.73;3.83;;;12.60;99.90;;;;;;5565433;25;20001;-80
2024/04/13 07:17:35;;;;;;;12.05;4.65;;;12.70;99.90;;;;;;5553590;25;20001;-81
2024/04/13 07:20:04;;;;;;;15.00;5.95;;;12.80;99.90;;;;;;5549827;25;20001;-81
2024/04/13 07:22:31;;;;;;;15.07;5.63;;;12.80;99.90;;;;;;5545668;25;20000;-80
2024/04/13 07:24:56;;;;;;;9.45;4.25;;;12.80;99.90;;;;;;5539920;25;20076;-80
2024/04/13 07:27:23;;;;;;;14.50;5.05;;;13.00;99.90;;;;;;5543030;25;20013;-82
2024/04/13 07:29:49;;;;;;;11.30;4.68;;;13.00;99.90;;;;;;5527572;25;20016;-81
2024/04/13 07:32:15;;;;;;;12.75;3.75;;;13.10;99.90;;;;;;5527353;25;20002;-80
2024/04/13 07:34:41;;;;;;;13.52;4.88;;;13.10;99.90;;;;;;5533046;25;20097;-81
2024/04/13 07:37:07;;;;;;;15.70;5.13;;;13.20;99.90;;;;;;5534715;25;20005;-80
2024/04/13 07:39:33;;;;;;;14.98;3.90;;;13.30;99.90;;;;;;5533922;25;20016;-81
2024/04/13 07:41:59;;;;;;;13.80;4.70;;;13.40;99.90;;;;;;5530628;25;20632;-80
2024/04/13 07:44:24;;;;;;;12.73;4.43;;;13.40;99.90;;;;;;5530904;25;20013;-81
2024/04/13 07:46:50;;;;;;;14.27;4.50;;;13.50;99.90;;;;;;5532854;25;20013;-81
2024/04/13 07:49:16;;;;;;;20.45;4.78;;;13.50;99.90;;;;;;5534509;25;20013;-81
2024/04/13 07:51:41;;;;;;;13.25;4.80;;;13.60;99.90;;;;;;5534666;25;20017;-80
2024/04/13 07:54:07;;;;;;;14.52;4.38;;;13.60;99.90;;;;;;5534731;25;20005;-80
2024/04/13 07:56:33;;;;;;;12.73;4.32;;;13.70;99.90;;;;;;5526513;25;20001;-81
2024/04/13 07:58:58;;;;;;;12.70;4.32;;;13.70;99.90;;;;;;5537283;25;20009;-81
2024/04/13 08:01:24;;;;;;;10.57;3.90;;;13.90;99.90;;;;;;5535118;25;20085;-80
2024/04/13 08:03:50;;;;;;;10.85;4.55;;;14.00;99.90;;;;;;5537139;25;20006;-80
2024/04/13 08:06:16;;;;;;;11.32;3.83;;;14.00;99.90;;;;;;5530497;25;20022;-81
2024/04/13 08:08:43;;;;;;;12.43;4.47;;;14.00;99.90;;;;;;5533079;25;20028;-80
2024/04/13 08:11:09;;;;;;;14.20;4.32;;;14.10;99.90;;;;;;5528788;25;20015;-81
2024/04/13 08:13:35;;;;;;;15.82;4.32;;;14.20;99.90;;;;;;5525234;25;20006;-81
2024/04/13 08:16:06;;;;;;;17.13;4.25;;;14.20;99.90;;;;;;5529196;25;20016;-80
2024/04/13 08:18:32;;;;;;;14.50;4.13;;;14.30;99.90;;;;;;5533781;25;20050;-81
2024/04/13 08:20:58;;;;;;;13.48;4.25;;;14.40;99.90;;;;;;5546194;25;19997;-81
2024/04/13 08:23:23;;;;;;;13.05;4.28;;;14.50;99.90;;;;;;5538852;25;20009;-80
2024/04/13 08:25:49;;;;;;;13.95;4.55;;;14.60;99.90;;;;;;5523588;25;20001;-81
2024/04/13 08:28:15;;;;;;;11.82;4.30;;;14.60;99.90;;;;;;5530513;25;20028;-81
2024/04/13 08:30:42;;;;;;;12.35;4.65;;;14.70;99.90;;;;;;5541868;25;20000;-80
2024/04/13 08:33:08;;;;;;;10.38;3.70;;;14.80;99.90;;;;;;5531864;25;20383;-81
2024/04/13 08:35:34;;;;;;;11.38;4.10;;;14.80;99.90;;;;;;5538333;25;20531;-80
2024/04/13 08:37:59;;;;;;;10.57;4.13;;;14.80;99.90;;;;;;5530105;25;20010;-80
2024/04/13 08:40:25;;;;;;;9.43;3.97;;;14.80;99.90;;;;;;5533010;25;20014;-80
2024/04/13 08:42:53;;;;;;;13.70;4.40;;;14.90;99.90;;;;;;5534872;25;20025;-81
2024/04/13 08:45:21;;;;;;;14.73;4.07;;;14.90;99.90;;;;;;5525632;25;20009;-81
2024/04/13 08:47:49;;;;;;;14.02;3.90;;;15.00;99.90;;;;;;5542586;25;20005;-80
2024/04/13 08:50:15;;;;;;;12.60;3.45;;;15.10;99.90;;;;;;5540727;25;20556;-81
2024/04/13 08:52:45;;;;;;;12.98;4.65;;;15.10;99.90;;;;;;5536158;25;20008;-79
2024/04/13 08:55:10;;;;;;;11.05;4.35;;;15.20;99.90;;;;;;5530718;25;20107;-82
2024/04/13 08:57:39;;;;;;;12.68;3.60;;;15.20;99.90;;;;;;5529399;25;20005;-80
2024/04/13 09:00:12;;;;;;;9.68;4.28;;;15.30;99.90;;;;;;5530755;25;20005;-81
2024/04/13 09:02:38;;;;;;;10.73;4.50;;;15.40;99.90;;;;;;5532698;25;20440;-80
2024/04/13 09:05:07;;;;;;;8.13;3.15;;;16.10;99.90;;;;;;5534444;25;20020;-81
2024/04/13 09:07:34;;;;;;;10.35;3.60;;;15.50;99.90;;;;;;5537205;25;20016;-80
2024/04/13 09:10:00;;;;;;;13.40;4.35;;;16.00;99.90;;;;;;5533130;25;20006;-80
2024/04/13 09:12:26;;;;;;;12.13;3.78;;;15.60;99.90;;;;;;5533376;25;20012;-81
2024/04/13 09:14:53;;;;;;;14.32;3.72;;;15.70;99.90;;;;;;5532693;25;19997;-81
2024/04/13 09:17:20;;;;;;;9.27;3.80;;;15.80;99.90;;;;;;5536074;25;20013;-81
2024/04/13 09:19:46;;;;;;;8.00;3.47;;;15.80;99.90;;;;;;5534479;25;20005;-81
2024/04/13 09:22:14;;;;;;;9.18;3.40;;;15.90;99.90;;;;;;5531196;25;20073;-81
2024/04/13 09:24:45;;;;;;;9.45;3.42;;;15.90;99.90;;;;;;5535272;25;20015;-81
2024/04/13 09:27:20;;;;;;;10.95;4.20;;;15.90;99.90;;;;;;5536992;25;20017;-80
2024/04/13 09:29:46;;;;;;;7.85;3.63;;;16.00;99.90;;;;;;5535923;25;20036;-82
2024/04/13 09:32:25;;;;;;;10.23;3.40;;;16.10;99.90;;;;;;5539666;25;20013;-80
2024/04/13 09:34:51;;;;;;;9.00;4.18;;;16.10;99.90;;;;;;5536235;25;20036;-81
2024/04/13 09:37:17;;;;;;;10.63;3.40;;;16.20;99.90;;;;;;5536074;25;20016;-81
2024/04/13 09:39:44;;;;;;;10.10;3.80;;;16.30;99.90;;;;;;5528131;25;20017;-80
2024/04/13 09:42:11;;;;;;;11.05;3.38;;;16.30;99.90;;;;;;5536995;25;20026;-80
2024/04/13 09:44:37;;;;;;;9.45;3.22;;;16.40;99.90;;;;;;5524405;25;20017;-81
2024/04/13 09:47:03;;;;;;;7.13;3.47;;;16.40;99.90;;;;;;5529548;25;20011;-81
2024/04/13 09:49:29;;;;;;;10.40;3.70;;;16.50;99.90;;;;;;5530363;25;20013;-80
2024/04/13 09:51:58;;;;;;;9.55;3.63;;;16.70;99.90;;;;;;5532687;25;20016;-82
2024/04/13 09:54:27;;;;;;;8.35;3.50;;;16.60;99.90;;;;;;5534283;25;20472;-81
2024/04/13 09:56:53;;;;;;;13.55;4.60;;;16.80;99.90;;;;;;5538454;25;20020;-80
2024/04/13 09:59:22;;;;;;;8.68;3.20;;;16.90;99.90;;;;;;5532890;25;20025;-80
2024/04/13 10:01:48;;;;;;;9.25;3.80;;;17.00;99.90;;;;;;5535659;25;20005;-80
2024/04/13 10:04:14;;;;;;;13.02;3.38;;;17.00;99.90;;;;;;5537198;25;20012;-81
2024/04/13 10:06:40;;;;;;;6.07;3.28;;;17.10;99.90;;;;;;5522251;25;20343;-81
2024/04/13 10:09:12;;;;;;;9.93;3.53;;;17.20;99.90;;;;;;5528881;25;20089;-81
2024/04/13 10:11:43;;;;;;;8.82;3.28;;;17.50;99.90;;;;;;5535223;25;20028;-81
2024/04/13 10:14:10;;;;;;;6.85;3.13;;;17.50;99.90;;;;;;5532393;25;20002;-80
2024/04/13 10:16:41;;;;;;;7.47;2.95;;;17.40;99.90;;;;;;5532856;25;20001;-81
2024/04/13 10:19:10;;;;;;;6.57;3.53;;;17.50;99.90;;;;;;5529694;25;20253;-80
2024/04/13 10:21:36;;;;;;;6.75;3.10;;;17.70;99.90;;;;;;5539708;25;20005;-80
2024/04/13 10:24:02;;;;;;;8.15;3.40;;;17.70;99.90;;;;;;5525572;25;20005;-81
2024/04/13 10:26:29;;;;;;;9.43;2.78;;;17.80;99.90;;;;;;5534604;25;20330;-81
2024/04/13 10:29:01;;;;;;;9.48;3.17;;;17.90;99.90;;;;;;5530544;25;20024;-80
2024/04/13 10:31:31;;;;;;;8.63;3.33;;;17.90;99.90;;;;;;5528227;25;20790;-80
2024/04/13 10:33:57;;;;;;;9.23;3.28;;;17.80;99.90;;;;;;5525842;25;20062;-79
2024/04/13 10:36:56;;;;;;;8.00;3.20;;;17.80;99.90;;;;;;5526632;25;20020;-81
2024/04/13 10:39:22;;;;;;;9.38;3.10;;;17.80;99.90;;;;;;5533155;25;20001;-80
2024/04/13 10:41:47;;;;;;;6.05;2.55;;;17.90;99.90;;;;;;5527007;25;20005;-81
2024/04/13 10:44:25;;;;;;;8.15;3.08;;;18.00;99.90;;;;;;5528184;25;20001;-80
2024/04/13 10:46:51;;;;;;;6.60;2.65;;;18.10;99.90;;;;;;5526153;25;20405;-80
2024/04/13 10:49:21;;;;;;;8.10;3.33;;;18.00;99.90;;;;;;5526272;25;20356;-80
2024/04/13 10:51:46;;;;;;;9.15;3.03;;;18.00;99.90;;;;;;5530816;25;20005;-80
2024/04/13 10:54:13;;;;;;;9.00;3.10;;;18.10;99.90;;;;;;5528469;25;20020;-80
2024/04/13 10:56:41;;;;;;;8.40;2.28;;;18.20;99.90;;;;;;5529009;25;20019;-79
2024/04/13 10:59:09;;;;;;;5.32;2.33;;;18.20;99.90;;;;;;5529672;25;20085;-81
2024/04/13 11:01:43;;;;;;;6.85;2.75;;;18.30;99.90;;;;;;5526814;25;20004;-79
2024/04/13 11:04:10;;;;;;;6.25;2.78;;;18.40;99.90;;;;;;5531617;25;20054;-81
2024/04/13 11:06:38;;;;;;;7.13;2.70;;;18.40;99.90;;;;;;5533685;25;20001;-81
2024/04/13 11:09:04;;;;;;;7.80;2.28;;;18.30;99.90;;;;;;5532919;25;20009;-80
2024/04/13 11:11:30;;;;;;;9.80;2.60;;;18.60;99.90;;;;;;5531711;25;20001;-80
2024/04/13 11:13:57;;;;;;;7.75;2.80;;;18.60;99.90;;;;;;5533233;25;20441;-80
2024/04/13 11:16:22;;;;;;;7.93;2.38;;;18.60;99.90;;;;;;5534546;25;20017;-80
2024/04/13 11:18:48;;;;;;;6.82;2.65;;;18.70;99.90;;;;;;5527607;25;20005;-80
2024/04/13 11:21:20;;;;;;;6.45;3.05;;;18.80;99.90;;;;;;5522719;25;20001;-81
2024/04/13 11:23:47;;;;;;;6.53;2.70;;;18.70;99.90;;;;;;5522149;25;20020;-81
2024/04/13 11:26:13;;;;;;;5.55;2.75;;;18.90;99.90;;;;;;5520447;25;20017;-80
2024/04/13 11:28:39;;;;;;;7.65;2.88;;;19.00;99.90;;;;;;5528433;25;20043;-80
2024/04/13 11:31:06;;;;;;;7.13;2.25;;;19.10;99.90;;;;;;5524118;25;20006;-79
2024/04/13 11:33:32;;;;;;;6.85;2.85;;;19.20;99.90;;;;;;5523577;25;20017;-81
2024/04/13 11:35:59;;;;;;;4.60;2.30;;;19.30;99.90;;;;;;5529948;25;20012;-80
2024/04/13 11:38:32;;;;;;;6.53;3.05;;;19.40;99.90;;;;;;5523594;25;20005;-81
2024/04/13 11:40:58;;;;;;;8.27;3.60;;;19.60;99.90;;;;;;5528100;25;20002;-80
2024/04/13 11:43:24;;;;;;;9.77;3.70;;;19.50;99.90;;;;;;5531288;25;20583;-80
2024/04/13 11:45:50;;;;;;;6.50;3.35;;;19.60;99.90;;;;;;5530803;25;20008;-80
2024/04/13 11:48:16;;;;;;;8.27;3.75;;;19.60;99.90;;;;;;5526298;25;20045;-81
2024/04/13 11:50:42;;;;;;;6.68;4.30;;;19.60;99.90;;;;;;5522402;25;20086;-80
2024/04/13 11:53:08;;;;;;;9.75;4.20;;;19.60;99.90;;;;;;5528684;25;20468;-82
2024/04/13 11:55:34;;;;;;;8.43;4.28;;;19.50;99.90;;;;;;5521752;25;20001;-79
2024/04/13 11:58:00;;;;;;;8.57;4.55;;;19.50;99.90;;;;;;5524917;25;20020;-81
2024/04/13 12:00:25;;;;;;;9.27;4.68;;;19.50;99.90;;;;;;5531115;25;20037;-80
2024/04/13 12:02:52;;;;;;;10.75;5.20;;;19.40;99.90;;;;;;5532241;25;20039;-79
2024/04/13 12:05:18;;;;;;;7.28;4.63;;;19.40;99.90;;;;;;5522688;25;20005;-80
2024/04/13 12:07:44;;;;;;;7.32;4.35;;;19.50;99.90;;;;;;5523008;25;20046;-81
2024/04/13 12:10:10;;;;;;;10.40;5.00;;;19.30;99.90;;;;;;5522582;25;20364;-81
2024/04/13 12:12:37;;;;;;;9.10;4.25;;;19.30;99.90;;;;;;5526831;25;20013;-81
2024/04/13 12:15:03;;;;;;;7.10;4.70;;;19.50;99.90;;;;;;5520575;25;20005;-81
2024/04/13 12:17:28;;;;;;;11.75;5.03;;;19.60;99.90;;;;;;5524007;25;20006;-81
2024/04/13 12:19:54;;;;;;;10.95;5.05;;;19.70;99.90;;;;;;5524708;25;20019;-81
2024/04/13 12:22:20;;;;;;;8.60;4.15;;;19.70;99.90;;;;;;5529649;25;20203;-80
2024/04/13 12:24:45;;;;;;;8.73;4.18;;;19.90;99.90;;;;;;5529068;25;20344;-80
2024/04/13 12:27:12;;;;;;;8.63;3.70;;;20.00;99.90;;;;;;5529522;25;20020;-81
2024/04/13 12:29:39;;;;;;;10.63;4.45;;;20.00;99.90;;;;;;5534838;25;20065;-81
2024/04/13 12:32:05;;;;;;;9.45;4.15;;;19.90;99.90;;;;;;5529231;25;20005;-81
2024/04/13 12:34:31;;;;;;;10.35;4.50;;;20.00;99.90;;;;;;5533224;25;20005;-79
2024/04/13 12:36:56;;;;;;;8.95;4.10;;;20.10;99.90;;;;;;5528858;26;20025;-81
2024/04/13 12:39:22;;;;;;;8.10;3.90;;;20.00;99.90;;;;;;5532925;25;20005;-82
2024/04/13 12:41:48;;;;;;;7.70;4.07;;;20.10;99.90;;;;;;5531697;25;20015;-81